Portada
METAR-TAF:

METAR-TAF

Aeroports :

Morrisville-Stowe State Airport

Morrisville, Vermont, Estats Units d'Amèrica

latitud: 44-32-10N, longitud: 072-36-58W, altitud: 223 m

Observació

L'informe es va fer fa 26 minuts, a les 23:57 UTC
Vent 9 kt del Nord
Temperatura -2°C
Humitat 86%
Pressió 1006 hPa
Visibilitat: 4.8 km
Cel ennuvolat a una alçada de 1900 ft
Cel cobert a una alçada de 7000 ft
neu, boirina

METAR: KMVL 212357Z AUTO 35009KT 3SM -SN BR BKN019 OVC070 M02/M04 A2970 RMK AO2 P0000 T10171039

Hora: 20:23 (00:23 UTC)


TAF: manca

Observacions i pronòstics meteorològics de més de 4000 aeroports (METAR i TAF).

Les estacions disponibles són els punts grocs i vermells al mapa.

Posi el ratolí al punt desitjat per veure el nom de l'estació.

Feu clic per veure les observacions i els pronòstics meteorològics.

Per canviar el mapa: feu clic els botons verds amb una creu de color negre per apropar; al botó verd amb un guió per allunyar la imatge; o en les fletxes verdes per a mapes adjacents.


METAR-TAF: